sensor_id;sensor_type;location;lat;lon;timestamp;temperature;humidity
39021;DHT22;25188;51.958;5.842;2024-02-26T00:01:26;7.20;91.80
39021;DHT22;25188;51.958;5.842;2024-02-26T00:03:53;7.10;91.80
39021;DHT22;25188;51.958;5.842;2024-02-26T00:06:19;7.20;91.90
39021;DHT22;25188;51.958;5.842;2024-02-26T00:08:46;7.20;91.90
39021;DHT22;25188;51.958;5.842;2024-02-26T00:11:12;7.10;91.90
39021;DHT22;25188;51.958;5.842;2024-02-26T00:13:38;7.10;91.90
39021;DHT22;25188;51.958;5.842;2024-02-26T00:16:04;7.00;91.80
39021;DHT22;25188;51.958;5.842;2024-02-26T00:18:30;7.10;91.90
39021;DHT22;25188;51.958;5.842;2024-02-26T00:20:55;7.10;91.90
39021;DHT22;25188;51.958;5.842;2024-02-26T00:23:21;7.10;91.90
39021;DHT22;25188;51.958;5.842;2024-02-26T00:25:48;7.10;91.90
39021;DHT22;25188;51.958;5.842;2024-02-26T00:28:14;7.10;92.00
39021;DHT22;25188;51.958;5.842;2024-02-26T00:30:39;7.10;92.00
39021;DHT22;25188;51.958;5.842;2024-02-26T00:33:05;7.10;92.00
39021;DHT22;25188;51.958;5.842;2024-02-26T00:35:30;7.00;92.00
39021;DHT22;25188;51.958;5.842;2024-02-26T00:37:56;7.00;92.00
39021;DHT22;25188;51.958;5.842;2024-02-26T00:40:24;7.00;92.10
39021;DHT22;25188;51.958;5.842;2024-02-26T00:42:49;7.10;92.10
39021;DHT22;25188;51.958;5.842;2024-02-26T00:45:15;7.10;92.20
39021;DHT22;25188;51.958;5.842;2024-02-26T00:47:42;7.00;92.20
39021;DHT22;25188;51.958;5.842;2024-02-26T00:50:09;7.10;92.30
39021;DHT22;25188;51.958;5.842;2024-02-26T00:52:35;7.10;92.30
39021;DHT22;25188;51.958;5.842;2024-02-26T00:55:02;7.10;92.30
39021;DHT22;25188;51.958;5.842;2024-02-26T00:57:28;7.10;92.30
39021;DHT22;25188;51.958;5.842;2024-02-26T00:59:54;7.10;92.30
39021;DHT22;25188;51.958;5.842;2024-02-26T01:02:22;7.10;92.30
39021;DHT22;25188;51.958;5.842;2024-02-26T01:04:48;7.10;92.30
39021;DHT22;25188;51.958;5.842;2024-02-26T01:07:13;7.10;92.30
39021;DHT22;25188;51.958;5.842;2024-02-26T01:09:39;7.10;92.40
39021;DHT22;25188;51.958;5.842;2024-02-26T01:12:05;7.10;92.40
39021;DHT22;25188;51.958;5.842;2024-02-26T01:14:31;7.10;92.40
39021;DHT22;25188;51.958;5.842;2024-02-26T01:16:56;7.10;92.40
39021;DHT22;25188;51.958;5.842;2024-02-26T01:19:22;7.10;92.40
39021;DHT22;25188;51.958;5.842;2024-02-26T01:21:48;7.20;92.70
39021;DHT22;25188;51.958;5.842;2024-02-26T01:24:14;7.20;92.40
39021;DHT22;25188;51.958;5.842;2024-02-26T01:26:41;7.20;92.40
39021;DHT22;25188;51.958;5.842;2024-02-26T01:29:06;7.20;92.40
39021;DHT22;25188;51.958;5.842;2024-02-26T01:31:32;7.20;92.40
39021;DHT22;25188;51.958;5.842;2024-02-26T01:33:58;7.30;92.40
39021;DHT22;25188;51.958;5.842;2024-02-26T01:36:23;7.30;92.40
39021;DHT22;25188;51.958;5.842;2024-02-26T01:38:49;7.30;92.40
39021;DHT22;25188;51.958;5.842;2024-02-26T01:41:15;7.30;92.40
39021;DHT22;25188;51.958;5.842;2024-02-26T01:43:40;7.30;92.40
39021;DHT22;25188;51.958;5.842;2024-02-26T01:46:10;7.30;92.40
39021;DHT22;25188;51.958;5.842;2024-02-26T01:48:37;7.30;92.40
39021;DHT22;25188;51.958;5.842;2024-02-26T01:51:03;7.30;92.40
39021;DHT22;25188;51.958;5.842;2024-02-26T01:53:29;7.20;92.40
39021;DHT22;25188;51.958;5.842;2024-02-26T01:55:55;7.30;92.40
39021;DHT22;25188;51.958;5.842;2024-02-26T01:58:21;7.30;92.50
39021;DHT22;25188;51.958;5.842;2024-02-26T02:00:46;7.30;92.50
39021;DHT22;25188;51.958;5.842;2024-02-26T02:03:12;7.30;92.50
39021;DHT22;25188;51.958;5.842;2024-02-26T02:05:38;7.30;92.50
39021;DHT22;25188;51.958;5.842;2024-02-26T02:08:10;7.20;92.50
39021;DHT22;25188;51.958;5.842;2024-02-26T02:10:38;7.30;92.50
39021;DHT22;25188;51.958;5.842;2024-02-26T02:13:03;7.40;92.50
39021;DHT22;25188;51.958;5.842;2024-02-26T02:15:29;7.30;92.40
39021;DHT22;25188;51.958;5.842;2024-02-26T02:17:55;7.30;92.40
39021;DHT22;25188;51.958;5.842;2024-02-26T02:20:31;7.30;92.40
39021;DHT22;25188;51.958;5.842;2024-02-26T02:22:58;7.30;92.40
39021;DHT22;25188;51.958;5.842;2024-02-26T02:25:24;7.40;92.40
39021;DHT22;25188;51.958;5.842;2024-02-26T02:27:50;7.40;92.40
39021;DHT22;25188;51.958;5.842;2024-02-26T02:30:17;7.40;92.40
39021;DHT22;25188;51.958;5.842;2024-02-26T02:32:43;7.40;92.40
39021;DHT22;25188;51.958;5.842;2024-02-26T02:35:09;7.30;92.30
39021;DHT22;25188;51.958;5.842;2024-02-26T02:37:35;7.30;92.20
39021;DHT22;25188;51.958;5.842;2024-02-26T02:40:00;7.30;92.30
39021;DHT22;25188;51.958;5.842;2024-02-26T02:42:26;7.30;92.20
39021;DHT22;25188;51.958;5.842;2024-02-26T02:44:52;7.30;92.30
39021;DHT22;25188;51.958;5.842;2024-02-26T02:47:17;7.30;92.20
39021;DHT22;25188;51.958;5.842;2024-02-26T02:49:43;7.30;92.20
39021;DHT22;25188;51.958;5.842;2024-02-26T02:52:09;7.30;92.20
39021;DHT22;25188;51.958;5.842;2024-02-26T02:54:34;7.30;92.30
39021;DHT22;25188;51.958;5.842;2024-02-26T02:57:02;7.30;92.30
39021;DHT22;25188;51.958;5.842;2024-02-26T02:59:28;7.30;92.30
39021;DHT22;25188;51.958;5.842;2024-02-26T03:01:54;7.20;92.30
39021;DHT22;25188;51.958;5.842;2024-02-26T03:04:19;7.20;92.40
39021;DHT22;25188;51.958;5.842;2024-02-26T03:06:45;7.20;92.30
39021;DHT22;25188;51.958;5.842;2024-02-26T03:09:11;7.20;92.40
39021;DHT22;25188;51.958;5.842;2024-02-26T03:11:37;7.20;92.40
39021;DHT22;25188;51.958;5.842;2024-02-26T03:14:02;7.20;92.50
39021;DHT22;25188;51.958;5.842;2024-02-26T03:16:28;7.20;92.50
39021;DHT22;25188;51.958;5.842;2024-02-26T03:18:54;7.20;92.50
39021;DHT22;25188;51.958;5.842;2024-02-26T03:21:19;7.20;92.80
39021;DHT22;25188;51.958;5.842;2024-02-26T03:23:45;7.20;92.50
39021;DHT22;25188;51.958;5.842;2024-02-26T03:26:11;7.20;92.50
39021;DHT22;25188;51.958;5.842;2024-02-26T03:28:40;7.20;92.50
39021;DHT22;25188;51.958;5.842;2024-02-26T03:31:06;7.20;92.40
39021;DHT22;25188;51.958;5.842;2024-02-26T03:33:31;7.20;92.40
39021;DHT22;25188;51.958;5.842;2024-02-26T03:35:57;7.20;92.40
39021;DHT22;25188;51.958;5.842;2024-02-26T03:38:23;7.20;92.40
39021;DHT22;25188;51.958;5.842;2024-02-26T03:40:48;7.20;92.50
39021;DHT22;25188;51.958;5.842;2024-02-26T03:43:14;7.20;92.40
39021;DHT22;25188;51.958;5.842;2024-02-26T03:45:40;7.20;92.40
39021;DHT22;25188;51.958;5.842;2024-02-26T03:48:06;7.30;92.40
39021;DHT22;25188;51.958;5.842;2024-02-26T03:50:31;7.20;92.40
39021;DHT22;25188;51.958;5.842;2024-02-26T03:52:57;7.30;92.40
39021;DHT22;25188;51.958;5.842;2024-02-26T03:55:23;7.30;92.40
39021;DHT22;25188;51.958;5.842;2024-02-26T03:57:51;7.30;92.40
39021;DHT22;25188;51.958;5.842;2024-02-26T04:00:16;7.30;92.40
39021;DHT22;25188;51.958;5.842;2024-02-26T04:02:42;7.30;92.40
39021;DHT22;25188;51.958;5.842;2024-02-26T04:05:11;7.20;92.40
39021;DHT22;25188;51.958;5.842;2024-02-26T04:07:37;7.20;92.40
39021;DHT22;25188;51.958;5.842;2024-02-26T04:10:03;7.20;92.50
39021;DHT22;25188;51.958;5.842;2024-02-26T04:12:30;7.20;92.50
39021;DHT22;25188;51.958;5.842;2024-02-26T04:14:56;7.20;92.50
39021;DHT22;25188;51.958;5.842;2024-02-26T04:17:21;7.20;92.60
39021;DHT22;25188;51.958;5.842;2024-02-26T04:19:47;7.20;92.60
39021;DHT22;25188;51.958;5.842;2024-02-26T04:22:13;7.20;92.60
39021;DHT22;25188;51.958;5.842;2024-02-26T04:24:38;7.20;92.70
39021;DHT22;25188;51.958;5.842;2024-02-26T04:27:04;7.20;92.70
39021;DHT22;25188;51.958;5.842;2024-02-26T04:29:30;7.20;92.70
39021;DHT22;25188;51.958;5.842;2024-02-26T04:31:55;7.10;92.80
39021;DHT22;25188;51.958;5.842;2024-02-26T04:34:21;7.20;92.90
39021;DHT22;25188;51.958;5.842;2024-02-26T04:36:47;7.10;92.90
39021;DHT22;25188;51.958;5.842;2024-02-26T04:39:13;7.10;92.90
39021;DHT22;25188;51.958;5.842;2024-02-26T04:41:39;7.10;93.00
39021;DHT22;25188;51.958;5.842;2024-02-26T04:44:05;7.10;93.00
39021;DHT22;25188;51.958;5.842;2024-02-26T04:46:31;7.10;93.10
39021;DHT22;25188;51.958;5.842;2024-02-26T04:48:56;7.10;93.10
39021;DHT22;25188;51.958;5.842;2024-02-26T04:51:22;7.00;93.10
39021;DHT22;25188;51.958;5.842;2024-02-26T04:53:48;7.10;93.30
39021;DHT22;25188;51.958;5.842;2024-02-26T04:56:13;7.00;93.40
39021;DHT22;25188;51.958;5.842;2024-02-26T04:58:39;7.00;93.40
39021;DHT22;25188;51.958;5.842;2024-02-26T05:01:05;7.00;93.50
39021;DHT22;25188;51.958;5.842;2024-02-26T05:03:31;6.90;93.60
39021;DHT22;25188;51.958;5.842;2024-02-26T05:05:56;6.90;93.70
39021;DHT22;25188;51.958;5.842;2024-02-26T05:08:23;6.90;93.90
39021;DHT22;25188;51.958;5.842;2024-02-26T05:10:49;6.90;93.80
39021;DHT22;25188;51.958;5.842;2024-02-26T05:13:15;6.90;94.10
39021;DHT22;25188;51.958;5.842;2024-02-26T05:15:43;6.90;94.20
39021;DHT22;25188;51.958;5.842;2024-02-26T05:18:10;6.90;94.20
39021;DHT22;25188;51.958;5.842;2024-02-26T05:20:36;6.80;94.20
39021;DHT22;25188;51.958;5.842;2024-02-26T05:23:03;6.90;94.40
39021;DHT22;25188;51.958;5.842;2024-02-26T05:25:29;6.80;94.60
39021;DHT22;25188;51.958;5.842;2024-02-26T05:27:55;6.80;94.70
39021;DHT22;25188;51.958;5.842;2024-02-26T05:30:21;6.80;94.80
39021;DHT22;25188;51.958;5.842;2024-02-26T05:32:46;6.80;95.10
39021;DHT22;25188;51.958;5.842;2024-02-26T05:35:12;6.80;95.30
39021;DHT22;25188;51.958;5.842;2024-02-26T05:37:38;6.80;95.40
39021;DHT22;25188;51.958;5.842;2024-02-26T05:40:05;6.80;95.40
39021;DHT22;25188;51.958;5.842;2024-02-26T05:42:31;6.70;95.60
39021;DHT22;25188;51.958;5.842;2024-02-26T05:44:57;6.70;95.60
39021;DHT22;25188;51.958;5.842;2024-02-26T05:47:23;6.70;95.80
39021;DHT22;25188;51.958;5.842;2024-02-26T05:49:48;6.70;96.10
39021;DHT22;25188;51.958;5.842;2024-02-26T05:52:14;6.70;96.30
39021;DHT22;25188;51.958;5.842;2024-02-26T05:54:40;6.60;96.50
39021;DHT22;25188;51.958;5.842;2024-02-26T05:57:05;6.60;96.60
39021;DHT22;25188;51.958;5.842;2024-02-26T05:59:31;6.60;96.70
39021;DHT22;25188;51.958;5.842;2024-02-26T06:01:57;6.60;97.10
39021;DHT22;25188;51.958;5.842;2024-02-26T06:04:22;6.60;97.20
39021;DHT22;25188;51.958;5.842;2024-02-26T06:06:48;6.60;97.50
39021;DHT22;25188;51.958;5.842;2024-02-26T06:09:14;6.50;97.60
39021;DHT22;25188;51.958;5.842;2024-02-26T06:11:40;6.50;97.60
39021;DHT22;25188;51.958;5.842;2024-02-26T06:14:06;6.50;97.80
39021;DHT22;25188;51.958;5.842;2024-02-26T06:16:32;6.50;98.10
39021;DHT22;25188;51.958;5.842;2024-02-26T06:18:59;6.50;98.20
39021;DHT22;25188;51.958;5.842;2024-02-26T06:21:25;6.50;98.20
39021;DHT22;25188;51.958;5.842;2024-02-26T06:23:51;6.50;98.20
39021;DHT22;25188;51.958;5.842;2024-02-26T06:26:17;6.50;98.20
39021;DHT22;25188;51.958;5.842;2024-02-26T06:28:42;6.60;98.30
39021;DHT22;25188;51.958;5.842;2024-02-26T06:31:08;6.60;98.50
39021;DHT22;25188;51.958;5.842;2024-02-26T06:33:34;6.60;98.60
39021;DHT22;25188;51.958;5.842;2024-02-26T06:35:59;6.50;98.60
39021;DHT22;25188;51.958;5.842;2024-02-26T06:38:25;6.60;98.60
39021;DHT22;25188;51.958;5.842;2024-02-26T06:40:51;6.60;98.80
39021;DHT22;25188;51.958;5.842;2024-02-26T06:43:16;6.60;98.80
39021;DHT22;25188;51.958;5.842;2024-02-26T06:45:42;6.60;99.20
39021;DHT22;25188;51.958;5.842;2024-02-26T06:48:08;6.60;99.10
39021;DHT22;25188;51.958;5.842;2024-02-26T06:50:33;6.60;99.20
39021;DHT22;25188;51.958;5.842;2024-02-26T06:52:59;6.60;99.20
39021;DHT22;25188;51.958;5.842;2024-02-26T06:55:25;6.60;99.40
39021;DHT22;25188;51.958;5.842;2024-02-26T06:57:50;6.60;99.30
39021;DHT22;25188;51.958;5.842;2024-02-26T07:00:16;6.60;99.40
39021;DHT22;25188;51.958;5.842;2024-02-26T07:02:43;6.60;99.50
39021;DHT22;25188;51.958;5.842;2024-02-26T07:05:09;6.60;99.60
39021;DHT22;25188;51.958;5.842;2024-02-26T07:07:35;6.60;99.70
39021;DHT22;25188;51.958;5.842;2024-02-26T07:10:00;6.60;99.90
39021;DHT22;25188;51.958;5.842;2024-02-26T07:12:29;6.60;99.90
39021;DHT22;25188;51.958;5.842;2024-02-26T07:14:55;6.60;99.90
39021;DHT22;25188;51.958;5.842;2024-02-26T07:17:21;6.60;99.90
39021;DHT22;25188;51.958;5.842;2024-02-26T07:19:46;6.60;99.90
39021;DHT22;25188;51.958;5.842;2024-02-26T07:22:12;6.60;99.90
39021;DHT22;25188;51.958;5.842;2024-02-26T07:24:39;6.60;99.90
39021;DHT22;25188;51.958;5.842;2024-02-26T07:27:04;6.50;99.90
39021;DHT22;25188;51.958;5.842;2024-02-26T07:29:30;6.50;99.90
39021;DHT22;25188;51.958;5.842;2024-02-26T07:31:56;6.50;99.90
39021;DHT22;25188;51.958;5.842;2024-02-26T07:34:22;6.50;99.90
39021;DHT22;25188;51.958;5.842;2024-02-26T07:36:53;6.50;99.90
39021;DHT22;25188;51.958;5.842;2024-02-26T07:39:19;6.50;99.90
39021;DHT22;25188;51.958;5.842;2024-02-26T07:41:45;6.40;99.90
39021;DHT22;25188;51.958;5.842;2024-02-26T07:44:14;6.40;99.90
39021;DHT22;25188;51.958;5.842;2024-02-26T07:46:39;6.50;99.90
39021;DHT22;25188;51.958;5.842;2024-02-26T07:49:05;6.40;99.90
39021;DHT22;25188;51.958;5.842;2024-02-26T07:51:30;6.40;99.90
39021;DHT22;25188;51.958;5.842;2024-02-26T07:53:56;6.40;99.90
39021;DHT22;25188;51.958;5.842;2024-02-26T07:56:22;6.50;99.90
39021;DHT22;25188;51.958;5.842;2024-02-26T07:58:48;6.50;99.90
39021;DHT22;25188;51.958;5.842;2024-02-26T08:01:14;6.50;99.90
39021;DHT22;25188;51.958;5.842;2024-02-26T08:03:40;6.50;99.90
39021;DHT22;25188;51.958;5.842;2024-02-26T08:06:06;6.40;99.90
39021;DHT22;25188;51.958;5.842;2024-02-26T08:08:33;6.50;99.90
39021;DHT22;25188;51.958;5.842;2024-02-26T08:10:59;6.50;99.90
39021;DHT22;25188;51.958;5.842;2024-02-26T08:13:24;6.50;99.90
39021;DHT22;25188;51.958;5.842;2024-02-26T08:15:51;6.50;99.90
39021;DHT22;25188;51.958;5.842;2024-02-26T08:18:17;6.50;99.90
39021;DHT22;25188;51.958;5.842;2024-02-26T08:20:43;6.50;99.90
39021;DHT22;25188;51.958;5.842;2024-02-26T08:23:09;6.50;99.90
39021;DHT22;25188;51.958;5.842;2024-02-26T08:25:34;6.50;99.90
39021;DHT22;25188;51.958;5.842;2024-02-26T08:28:00;6.50;99.90
39021;DHT22;25188;51.958;5.842;2024-02-26T08:30:26;6.50;99.90
39021;DHT22;25188;51.958;5.842;2024-02-26T08:32:52;6.50;99.90
39021;DHT22;25188;51.958;5.842;2024-02-26T08:35:18;6.50;99.90
39021;DHT22;25188;51.958;5.842;2024-02-26T08:37:47;6.50;99.90
39021;DHT22;25188;51.958;5.842;2024-02-26T08:40:13;6.50;99.90
39021;DHT22;25188;51.958;5.842;2024-02-26T08:42:39;6.50;99.90
39021;DHT22;25188;51.958;5.842;2024-02-26T08:45:05;6.50;99.90
39021;DHT22;25188;51.958;5.842;2024-02-26T08:47:32;6.50;99.90
39021;DHT22;25188;51.958;5.842;2024-02-26T08:49:58;6.50;99.90
39021;DHT22;25188;51.958;5.842;2024-02-26T08:52:23;6.50;99.90
39021;DHT22;25188;51.958;5.842;2024-02-26T08:54:50;6.60;99.90
39021;DHT22;25188;51.958;5.842;2024-02-26T08:57:15;6.50;99.90
39021;DHT22;25188;51.958;5.842;2024-02-26T08:59:41;6.50;99.90
39021;DHT22;25188;51.958;5.842;2024-02-26T09:02:07;6.50;99.90
39021;DHT22;25188;51.958;5.842;2024-02-26T09:04:34;6.60;99.90
39021;DHT22;25188;51.958;5.842;2024-02-26T09:07:01;6.60;99.90
39021;DHT22;25188;51.958;5.842;2024-02-26T09:09:27;6.60;99.90
39021;DHT22;25188;51.958;5.842;2024-02-26T09:11:53;6.60;99.90
39021;DHT22;25188;51.958;5.842;2024-02-26T09:14:21;6.60;99.90
39021;DHT22;25188;51.958;5.842;2024-02-26T09:16:46;6.60;99.90
39021;DHT22;25188;51.958;5.842;2024-02-26T09:19:16;6.60;99.90
39021;DHT22;25188;51.958;5.842;2024-02-26T09:21:43;6.60;99.90
39021;DHT22;25188;51.958;5.842;2024-02-26T09:24:10;6.70;99.90
39021;DHT22;25188;51.958;5.842;2024-02-26T09:26:38;6.70;99.90
39021;DHT22;25188;51.958;5.842;2024-02-26T09:29:04;6.70;99.90
39021;DHT22;25188;51.958;5.842;2024-02-26T09:31:31;6.70;99.90
39021;DHT22;25188;51.958;5.842;2024-02-26T09:33:57;6.80;99.90
39021;DHT22;25188;51.958;5.842;2024-02-26T09:36:22;6.80;99.90
39021;DHT22;25188;51.958;5.842;2024-02-26T09:38:48;6.80;99.90
39021;DHT22;25188;51.958;5.842;2024-02-26T09:41:17;6.80;99.90
39021;DHT22;25188;51.958;5.842;2024-02-26T09:43:45;6.80;99.90
39021;DHT22;25188;51.958;5.842;2024-02-26T09:46:13;6.90;99.90
39021;DHT22;25188;51.958;5.842;2024-02-26T09:48:42;6.90;99.90
39021;DHT22;25188;51.958;5.842;2024-02-26T09:51:10;6.90;99.90
39021;DHT22;25188;51.958;5.842;2024-02-26T09:53:38;6.90;99.90
39021;DHT22;25188;51.958;5.842;2024-02-26T09:56:08;6.90;99.90
39021;DHT22;25188;51.958;5.842;2024-02-26T09:58:34;6.90;99.90
39021;DHT22;25188;51.958;5.842;2024-02-26T10:01:03;6.90;99.90
39021;DHT22;25188;51.958;5.842;2024-02-26T10:03:57;6.90;99.90
39021;DHT22;25188;51.958;5.842;2024-02-26T10:06:25;6.90;99.90
39021;DHT22;25188;51.958;5.842;2024-02-26T10:08:51;6.90;99.90
39021;DHT22;25188;51.958;5.842;2024-02-26T10:11:18;6.90;99.90
39021;DHT22;25188;51.958;5.842;2024-02-26T10:13:44;6.80;99.90
39021;DHT22;25188;51.958;5.842;2024-02-26T10:16:10;6.90;99.90
39021;DHT22;25188;51.958;5.842;2024-02-26T10:18:49;6.90;99.90
39021;DHT22;25188;51.958;5.842;2024-02-26T10:21:21;6.90;99.90
39021;DHT22;25188;51.958;5.842;2024-02-26T10:23:48;6.90;99.90
39021;DHT22;25188;51.958;5.842;2024-02-26T10:26:15;6.90;99.90
39021;DHT22;25188;51.958;5.842;2024-02-26T10:28:44;6.90;99.90
39021;DHT22;25188;51.958;5.842;2024-02-26T10:31:11;6.90;99.90
39021;DHT22;25188;51.958;5.842;2024-02-26T10:33:39;6.90;99.90
39021;DHT22;25188;51.958;5.842;2024-02-26T10:36:06;6.80;99.90
39021;DHT22;25188;51.958;5.842;2024-02-26T10:38:34;6.90;99.90
39021;DHT22;25188;51.958;5.842;2024-02-26T10:41:02;6.90;99.90
39021;DHT22;25188;51.958;5.842;2024-02-26T10:43:28;6.90;99.90
39021;DHT22;25188;51.958;5.842;2024-02-26T10:45:58;6.90;99.90
39021;DHT22;25188;51.958;5.842;2024-02-26T10:48:24;6.90;99.90
39021;DHT22;25188;51.958;5.842;2024-02-26T10:50:49;7.00;99.90
39021;DHT22;25188;51.958;5.842;2024-02-26T10:53:22;7.00;99.90
39021;DHT22;25188;51.958;5.842;2024-02-26T10:55:54;7.00;99.90
39021;DHT22;25188;51.958;5.842;2024-02-26T10:58:21;7.00;99.90
39021;DHT22;25188;51.958;5.842;2024-02-26T11:00:50;7.00;99.90
39021;DHT22;25188;51.958;5.842;2024-02-26T11:03:16;7.10;99.90
39021;DHT22;25188;51.958;5.842;2024-02-26T11:05:47;7.10;99.90
39021;DHT22;25188;51.958;5.842;2024-02-26T11:08:14;7.10;99.90
39021;DHT22;25188;51.958;5.842;2024-02-26T11:10:41;7.10;99.90
39021;DHT22;25188;51.958;5.842;2024-02-26T11:13:09;7.10;99.90
39021;DHT22;25188;51.958;5.842;2024-02-26T11:15:36;7.10;99.90
39021;DHT22;25188;51.958;5.842;2024-02-26T11:18:03;7.10;99.90
39021;DHT22;25188;51.958;5.842;2024-02-26T11:20:29;7.10;99.90
39021;DHT22;25188;51.958;5.842;2024-02-26T11:22:56;7.10;99.90
39021;DHT22;25188;51.958;5.842;2024-02-26T11:25:22;7.10;99.90
39021;DHT22;25188;51.958;5.842;2024-02-26T11:27:53;7.10;99.90
39021;DHT22;25188;51.958;5.842;2024-02-26T11:30:21;7.10;99.90
39021;DHT22;25188;51.958;5.842;2024-02-26T11:32:48;7.00;99.90
39021;DHT22;25188;51.958;5.842;2024-02-26T11:35:14;7.00;99.90
39021;DHT22;25188;51.958;5.842;2024-02-26T11:37:54;7.10;99.90
39021;DHT22;25188;51.958;5.842;2024-02-26T11:40:20;7.10;99.90
39021;DHT22;25188;51.958;5.842;2024-02-26T11:42:47;7.00;99.90
39021;DHT22;25188;51.958;5.842;2024-02-26T11:48:14;7.10;99.90
39021;DHT22;25188;51.958;5.842;2024-02-26T11:50:47;7.00;99.90
39021;DHT22;25188;51.958;5.842;2024-02-26T11:53:30;7.10;99.90
39021;DHT22;25188;51.958;5.842;2024-02-26T11:58:45;7.10;99.90
39021;DHT22;25188;51.958;5.842;2024-02-26T12:04:12;7.10;99.90
39021;DHT22;25188;51.958;5.842;2024-02-26T12:06:45;7.10;99.90
39021;DHT22;25188;51.958;5.842;2024-02-26T12:09:11;7.10;99.90
39021;DHT22;25188;51.958;5.842;2024-02-26T12:11:39;7.20;99.90
39021;DHT22;25188;51.958;5.842;2024-02-26T12:14:09;7.20;99.90
39021;DHT22;25188;51.958;5.842;2024-02-26T12:16:39;7.20;99.90
39021;DHT22;25188;51.958;5.842;2024-02-26T12:19:07;7.20;99.90
39021;DHT22;25188;51.958;5.842;2024-02-26T12:21:37;7.20;99.90
39021;DHT22;25188;51.958;5.842;2024-02-26T12:24:14;7.20;99.90
39021;DHT22;25188;51.958;5.842;2024-02-26T12:26:40;7.20;99.90
39021;DHT22;25188;51.958;5.842;2024-02-26T12:29:06;7.20;99.90
39021;DHT22;25188;51.958;5.842;2024-02-26T12:31:32;7.20;99.90
39021;DHT22;25188;51.958;5.842;2024-02-26T12:34:01;7.20;99.90
39021;DHT22;25188;51.958;5.842;2024-02-26T12:36:27;7.30;99.90
39021;DHT22;25188;51.958;5.842;2024-02-26T12:38:53;7.30;99.90
39021;DHT22;25188;51.958;5.842;2024-02-26T12:41:20;7.30;99.90
39021;DHT22;25188;51.958;5.842;2024-02-26T12:43:46;7.30;99.90
39021;DHT22;25188;51.958;5.842;2024-02-26T12:46:12;7.40;99.90
39021;DHT22;25188;51.958;5.842;2024-02-26T12:48:39;7.30;99.90
39021;DHT22;25188;51.958;5.842;2024-02-26T12:51:05;7.40;99.90
39021;DHT22;25188;51.958;5.842;2024-02-26T12:53:32;7.40;99.90
39021;DHT22;25188;51.958;5.842;2024-02-26T12:55:58;7.40;99.90
39021;DHT22;25188;51.958;5.842;2024-02-26T12:58:24;7.40;99.90
39021;DHT22;25188;51.958;5.842;2024-02-26T13:00:54;7.40;99.90
39021;DHT22;25188;51.958;5.842;2024-02-26T13:03:21;7.40;99.90
39021;DHT22;25188;51.958;5.842;2024-02-26T13:05:47;7.50;99.90
39021;DHT22;25188;51.958;5.842;2024-02-26T13:08:20;7.50;99.90
39021;DHT22;25188;51.958;5.842;2024-02-26T13:10:46;7.50;99.90
39021;DHT22;25188;51.958;5.842;2024-02-26T13:13:15;7.50;99.90
39021;DHT22;25188;51.958;5.842;2024-02-26T13:15:45;7.50;99.90
39021;DHT22;25188;51.958;5.842;2024-02-26T13:18:12;7.50;99.90
39021;DHT22;25188;51.958;5.842;2024-02-26T13:20:38;7.50;99.90
39021;DHT22;25188;51.958;5.842;2024-02-26T13:23:11;7.50;99.90
39021;DHT22;25188;51.958;5.842;2024-02-26T13:25:37;7.60;99.90
39021;DHT22;25188;51.958;5.842;2024-02-26T13:28:08;7.60;99.90
39021;DHT22;25188;51.958;5.842;2024-02-26T13:30:35;7.60;99.90
39021;DHT22;25188;51.958;5.842;2024-02-26T13:33:11;7.60;99.90
39021;DHT22;25188;51.958;5.842;2024-02-26T13:35:38;7.60;99.90
39021;DHT22;25188;51.958;5.842;2024-02-26T13:38:05;7.60;99.90
39021;DHT22;25188;51.958;5.842;2024-02-26T13:40:31;7.60;99.90
39021;DHT22;25188;51.958;5.842;2024-02-26T13:42:57;7.70;99.90
39021;DHT22;25188;51.958;5.842;2024-02-26T13:45:23;7.70;99.90
39021;DHT22;25188;51.958;5.842;2024-02-26T13:47:49;7.70;99.90
39021;DHT22;25188;51.958;5.842;2024-02-26T13:50:14;7.70;99.90
39021;DHT22;25188;51.958;5.842;2024-02-26T13:52:40;7.70;99.90
39021;DHT22;25188;51.958;5.842;2024-02-26T13:55:08;7.70;99.90
39021;DHT22;25188;51.958;5.842;2024-02-26T13:57:33;7.70;99.90
39021;DHT22;25188;51.958;5.842;2024-02-26T13:59:59;7.70;99.90
39021;DHT22;25188;51.958;5.842;2024-02-26T14:02:25;7.70;99.90
39021;DHT22;25188;51.958;5.842;2024-02-26T14:04:51;7.70;99.90
39021;DHT22;25188;51.958;5.842;2024-02-26T14:07:16;7.70;99.90
39021;DHT22;25188;51.958;5.842;2024-02-26T14:09:45;7.70;99.90
39021;DHT22;25188;51.958;5.842;2024-02-26T14:12:11;7.70;99.90
39021;DHT22;25188;51.958;5.842;2024-02-26T14:14:37;7.70;99.90
39021;DHT22;25188;51.958;5.842;2024-02-26T14:17:04;7.70;99.90
39021;DHT22;25188;51.958;5.842;2024-02-26T14:19:31;7.70;99.90
39021;DHT22;25188;51.958;5.842;2024-02-26T14:21:57;7.70;99.90
39021;DHT22;25188;51.958;5.842;2024-02-26T14:24:22;7.70;99.90
39021;DHT22;25188;51.958;5.842;2024-02-26T14:26:48;7.80;99.90
39021;DHT22;25188;51.958;5.842;2024-02-26T14:29:14;7.70;99.90
39021;DHT22;25188;51.958;5.842;2024-02-26T14:31:40;7.90;99.90
39021;DHT22;25188;51.958;5.842;2024-02-26T14:34:05;7.80;99.90
39021;DHT22;25188;51.958;5.842;2024-02-26T14:36:32;7.80;99.90
39021;DHT22;25188;51.958;5.842;2024-02-26T14:38:58;7.90;99.90
39021;DHT22;25188;51.958;5.842;2024-02-26T14:41:23;7.90;99.90
39021;DHT22;25188;51.958;5.842;2024-02-26T14:43:49;7.90;99.90
39021;DHT22;25188;51.958;5.842;2024-02-26T14:46:15;7.90;99.90
39021;DHT22;25188;51.958;5.842;2024-02-26T14:48:40;7.90;99.90
39021;DHT22;25188;51.958;5.842;2024-02-26T14:51:06;7.90;99.90
39021;DHT22;25188;51.958;5.842;2024-02-26T14:53:32;7.90;99.90
39021;DHT22;25188;51.958;5.842;2024-02-26T14:55:58;7.90;99.90
39021;DHT22;25188;51.958;5.842;2024-02-26T14:58:23;7.90;99.90
39021;DHT22;25188;51.958;5.842;2024-02-26T15:00:49;7.90;99.90
39021;DHT22;25188;51.958;5.842;2024-02-26T15:03:15;7.90;99.90
39021;DHT22;25188;51.958;5.842;2024-02-26T15:05:42;7.90;99.90
39021;DHT22;25188;51.958;5.842;2024-02-26T15:08:08;7.90;99.90
39021;DHT22;25188;51.958;5.842;2024-02-26T15:10:35;7.90;99.90
39021;DHT22;25188;51.958;5.842;2024-02-26T15:13:01;7.90;99.90
39021;DHT22;25188;51.958;5.842;2024-02-26T15:15:27;7.90;99.90
39021;DHT22;25188;51.958;5.842;2024-02-26T15:17:53;7.80;99.90
39021;DHT22;25188;51.958;5.842;2024-02-26T15:20:18;7.80;99.90
39021;DHT22;25188;51.958;5.842;2024-02-26T15:22:44;7.80;99.90
39021;DHT22;25188;51.958;5.842;2024-02-26T15:25:10;7.80;99.90
39021;DHT22;25188;51.958;5.842;2024-02-26T15:27:36;7.80;99.90
39021;DHT22;25188;51.958;5.842;2024-02-26T15:30:02;7.80;99.90
39021;DHT22;25188;51.958;5.842;2024-02-26T15:32:28;7.70;99.90
39021;DHT22;25188;51.958;5.842;2024-02-26T15:34:54;7.70;99.90
39021;DHT22;25188;51.958;5.842;2024-02-26T15:37:20;7.70;99.90
39021;DHT22;25188;51.958;5.842;2024-02-26T15:39:46;7.70;99.90
39021;DHT22;25188;51.958;5.842;2024-02-26T15:42:12;7.60;99.90
39021;DHT22;25188;51.958;5.842;2024-02-26T15:44:38;7.60;99.90
39021;DHT22;25188;51.958;5.842;2024-02-26T15:47:04;7.60;99.90
39021;DHT22;25188;51.958;5.842;2024-02-26T15:49:31;7.60;99.90